sensor_id;sensor_type;location;lat;lon;timestamp;temperature;humidity
21895;DHT22;11112;51.270;7.224;2024-03-02T00:00:40;9.10;99.90
21895;DHT22;11112;51.270;7.224;2024-03-02T00:03:07;9.00;99.90
21895;DHT22;11112;51.270;7.224;2024-03-02T00:05:35;9.00;99.90
21895;DHT22;11112;51.270;7.224;2024-03-02T00:08:05;9.10;99.90
21895;DHT22;11112;51.270;7.224;2024-03-02T00:10:37;9.10;99.90
21895;DHT22;11112;51.270;7.224;2024-03-02T00:13:06;9.10;99.90
21895;DHT22;11112;51.270;7.224;2024-03-02T00:15:42;9.10;99.90
21895;DHT22;11112;51.270;7.224;2024-03-02T00:18:14;9.10;99.90
21895;DHT22;11112;51.270;7.224;2024-03-02T00:20:45;9.10;99.90
21895;DHT22;11112;51.270;7.224;2024-03-02T00:23:15;9.00;99.90
21895;DHT22;11112;51.270;7.224;2024-03-02T00:25:44;9.00;99.90
21895;DHT22;11112;51.270;7.224;2024-03-02T00:28:16;9.00;99.90
21895;DHT22;11112;51.270;7.224;2024-03-02T00:30:59;9.10;99.90
21895;DHT22;11112;51.270;7.224;2024-03-02T00:33:31;9.10;99.90
21895;DHT22;11112;51.270;7.224;2024-03-02T00:35:59;9.10;99.90
21895;DHT22;11112;51.270;7.224;2024-03-02T00:38:29;9.10;99.90
21895;DHT22;11112;51.270;7.224;2024-03-02T00:40:58;9.10;99.90
21895;DHT22;11112;51.270;7.224;2024-03-02T00:43:47;9.10;99.90
21895;DHT22;11112;51.270;7.224;2024-03-02T00:46:22;9.10;99.90
21895;DHT22;11112;51.270;7.224;2024-03-02T00:48:54;9.10;99.90
21895;DHT22;11112;51.270;7.224;2024-03-02T00:51:23;9.10;99.90
21895;DHT22;11112;51.270;7.224;2024-03-02T00:53:51;9.10;99.90
21895;DHT22;11112;51.270;7.224;2024-03-02T00:56:20;9.10;99.90
21895;DHT22;11112;51.270;7.224;2024-03-02T00:58:48;9.10;99.90
21895;DHT22;11112;51.270;7.224;2024-03-02T01:01:16;9.10;99.90
21895;DHT22;11112;51.270;7.224;2024-03-02T01:03:44;9.10;99.90
21895;DHT22;11112;51.270;7.224;2024-03-02T01:06:12;9.10;99.90
21895;DHT22;11112;51.270;7.224;2024-03-02T01:08:39;9.10;99.90
21895;DHT22;11112;51.270;7.224;2024-03-02T01:11:06;9.10;99.90
21895;DHT22;11112;51.270;7.224;2024-03-02T01:13:33;9.10;99.90
21895;DHT22;11112;51.270;7.224;2024-03-02T01:16:01;9.20;99.90
21895;DHT22;11112;51.270;7.224;2024-03-02T01:18:29;9.10;99.90
21895;DHT22;11112;51.270;7.224;2024-03-02T01:20:58;9.10;99.90
21895;DHT22;11112;51.270;7.224;2024-03-02T01:23:25;9.10;99.90
21895;DHT22;11112;51.270;7.224;2024-03-02T01:25:53;9.20;99.90
21895;DHT22;11112;51.270;7.224;2024-03-02T01:28:20;9.10;99.90
21895;DHT22;11112;51.270;7.224;2024-03-02T01:30:48;9.10;99.90
21895;DHT22;11112;51.270;7.224;2024-03-02T01:33:16;9.20;99.90
21895;DHT22;11112;51.270;7.224;2024-03-02T01:35:43;9.20;99.90
21895;DHT22;11112;51.270;7.224;2024-03-02T01:38:11;9.20;99.90
21895;DHT22;11112;51.270;7.224;2024-03-02T01:40:39;9.20;99.90
21895;DHT22;11112;51.270;7.224;2024-03-02T01:43:06;9.20;99.90
21895;DHT22;11112;51.270;7.224;2024-03-02T01:45:34;9.20;99.90
21895;DHT22;11112;51.270;7.224;2024-03-02T01:48:03;9.20;99.90
21895;DHT22;11112;51.270;7.224;2024-03-02T01:50:32;9.20;99.90
21895;DHT22;11112;51.270;7.224;2024-03-02T01:53:00;9.20;99.90
21895;DHT22;11112;51.270;7.224;2024-03-02T01:55:29;9.20;99.90
21895;DHT22;11112;51.270;7.224;2024-03-02T01:57:56;9.20;99.90
21895;DHT22;11112;51.270;7.224;2024-03-02T02:00:24;9.20;99.90
21895;DHT22;11112;51.270;7.224;2024-03-02T02:02:52;9.20;99.90
21895;DHT22;11112;51.270;7.224;2024-03-02T02:05:20;9.20;99.90
21895;DHT22;11112;51.270;7.224;2024-03-02T02:07:47;9.20;99.90
21895;DHT22;11112;51.270;7.224;2024-03-02T02:10:14;9.20;99.90
21895;DHT22;11112;51.270;7.224;2024-03-02T02:12:43;9.20;99.90
21895;DHT22;11112;51.270;7.224;2024-03-02T02:15:24;9.20;99.90
21895;DHT22;11112;51.270;7.224;2024-03-02T02:17:52;9.20;99.90
21895;DHT22;11112;51.270;7.224;2024-03-02T02:20:19;9.20;99.90
21895;DHT22;11112;51.270;7.224;2024-03-02T02:22:58;9.20;99.90
21895;DHT22;11112;51.270;7.224;2024-03-02T02:25:26;9.20;99.90
21895;DHT22;11112;51.270;7.224;2024-03-02T02:27:54;9.20;99.90
21895;DHT22;11112;51.270;7.224;2024-03-02T02:30:22;9.10;99.90
21895;DHT22;11112;51.270;7.224;2024-03-02T02:32:50;9.20;99.90
21895;DHT22;11112;51.270;7.224;2024-03-02T02:35:17;9.20;99.90
21895;DHT22;11112;51.270;7.224;2024-03-02T02:37:45;9.20;99.90
21895;DHT22;11112;51.270;7.224;2024-03-02T02:40:15;9.20;99.90
21895;DHT22;11112;51.270;7.224;2024-03-02T02:42:47;9.20;99.90
21895;DHT22;11112;51.270;7.224;2024-03-02T02:45:14;9.20;99.90
21895;DHT22;11112;51.270;7.224;2024-03-02T02:47:41;9.20;99.90
21895;DHT22;11112;51.270;7.224;2024-03-02T02:50:09;9.20;99.90
21895;DHT22;11112;51.270;7.224;2024-03-02T02:52:37;9.20;99.90
21895;DHT22;11112;51.270;7.224;2024-03-02T02:55:08;9.20;99.90
21895;DHT22;11112;51.270;7.224;2024-03-02T02:57:37;9.30;99.90
21895;DHT22;11112;51.270;7.224;2024-03-02T03:00:08;9.30;99.90
21895;DHT22;11112;51.270;7.224;2024-03-02T03:02:39;9.30;99.90
21895;DHT22;11112;51.270;7.224;2024-03-02T03:05:08;9.30;99.90
21895;DHT22;11112;51.270;7.224;2024-03-02T03:07:35;9.30;99.90
21895;DHT22;11112;51.270;7.224;2024-03-02T03:10:04;9.30;99.90
21895;DHT22;11112;51.270;7.224;2024-03-02T03:12:32;9.20;99.90
21895;DHT22;11112;51.270;7.224;2024-03-02T03:15:01;9.30;99.90
21895;DHT22;11112;51.270;7.224;2024-03-02T03:17:30;9.30;99.90
21895;DHT22;11112;51.270;7.224;2024-03-02T03:19:57;9.30;99.90
21895;DHT22;11112;51.270;7.224;2024-03-02T03:22:24;9.30;99.90
21895;DHT22;11112;51.270;7.224;2024-03-02T03:24:51;9.30;99.90
21895;DHT22;11112;51.270;7.224;2024-03-02T03:27:18;9.30;99.90
21895;DHT22;11112;51.270;7.224;2024-03-02T03:29:46;9.30;99.90
21895;DHT22;11112;51.270;7.224;2024-03-02T03:32:14;9.30;99.90
21895;DHT22;11112;51.270;7.224;2024-03-02T03:34:42;9.30;99.90
21895;DHT22;11112;51.270;7.224;2024-03-02T03:37:09;9.30;99.90
21895;DHT22;11112;51.270;7.224;2024-03-02T03:39:36;9.30;99.90
21895;DHT22;11112;51.270;7.224;2024-03-02T03:42:03;9.30;99.90
21895;DHT22;11112;51.270;7.224;2024-03-02T03:44:30;9.30;99.90
21895;DHT22;11112;51.270;7.224;2024-03-02T03:46:58;9.30;99.90
21895;DHT22;11112;51.270;7.224;2024-03-02T03:49:27;9.30;99.90
21895;DHT22;11112;51.270;7.224;2024-03-02T03:51:55;9.30;99.90
21895;DHT22;11112;51.270;7.224;2024-03-02T03:54:22;9.40;99.90
21895;DHT22;11112;51.270;7.224;2024-03-02T03:56:49;9.30;99.90
21895;DHT22;11112;51.270;7.224;2024-03-02T03:59:16;9.30;99.90
21895;DHT22;11112;51.270;7.224;2024-03-02T04:01:43;9.30;99.90
21895;DHT22;11112;51.270;7.224;2024-03-02T04:04:10;9.40;99.90
21895;DHT22;11112;51.270;7.224;2024-03-02T04:06:38;9.30;99.90
21895;DHT22;11112;51.270;7.224;2024-03-02T04:09:06;9.30;99.90
21895;DHT22;11112;51.270;7.224;2024-03-02T04:11:33;9.30;99.90
21895;DHT22;11112;51.270;7.224;2024-03-02T04:14:00;9.30;99.90
21895;DHT22;11112;51.270;7.224;2024-03-02T04:16:27;9.30;99.90
21895;DHT22;11112;51.270;7.224;2024-03-02T04:18:55;9.30;99.90
21895;DHT22;11112;51.270;7.224;2024-03-02T04:21:22;9.30;99.90
21895;DHT22;11112;51.270;7.224;2024-03-02T04:23:50;9.30;99.90
21895;DHT22;11112;51.270;7.224;2024-03-02T04:26:18;9.30;99.90
21895;DHT22;11112;51.270;7.224;2024-03-02T04:28:47;9.30;99.90
21895;DHT22;11112;51.270;7.224;2024-03-02T04:31:15;9.30;99.90
21895;DHT22;11112;51.270;7.224;2024-03-02T04:33:42;9.30;99.90
21895;DHT22;11112;51.270;7.224;2024-03-02T04:36:09;9.30;99.90
21895;DHT22;11112;51.270;7.224;2024-03-02T04:38:36;9.30;99.90
21895;DHT22;11112;51.270;7.224;2024-03-02T04:41:06;9.30;99.90
21895;DHT22;11112;51.270;7.224;2024-03-02T04:43:33;9.30;99.90
21895;DHT22;11112;51.270;7.224;2024-03-02T04:46:01;9.30;99.90
21895;DHT22;11112;51.270;7.224;2024-03-02T04:48:28;9.30;99.90
21895;DHT22;11112;51.270;7.224;2024-03-02T04:50:55;9.30;99.90
21895;DHT22;11112;51.270;7.224;2024-03-02T04:53:22;9.30;99.90
21895;DHT22;11112;51.270;7.224;2024-03-02T04:55:49;9.30;99.90
21895;DHT22;11112;51.270;7.224;2024-03-02T04:58:47;9.30;99.90
21895;DHT22;11112;51.270;7.224;2024-03-02T05:01:14;9.30;99.90
21895;DHT22;11112;51.270;7.224;2024-03-02T05:03:42;9.30;99.90
21895;DHT22;11112;51.270;7.224;2024-03-02T05:06:10;9.30;99.90
21895;DHT22;11112;51.270;7.224;2024-03-02T05:08:37;9.30;99.90
21895;DHT22;11112;51.270;7.224;2024-03-02T05:11:04;9.20;99.90
21895;DHT22;11112;51.270;7.224;2024-03-02T05:13:47;9.30;99.90
21895;DHT22;11112;51.270;7.224;2024-03-02T05:16:14;9.30;99.90
21895;DHT22;11112;51.270;7.224;2024-03-02T05:18:41;9.30;99.90
21895;DHT22;11112;51.270;7.224;2024-03-02T05:21:08;9.30;99.90
21895;DHT22;11112;51.270;7.224;2024-03-02T05:23:35;9.30;99.90
21895;DHT22;11112;51.270;7.224;2024-03-02T05:26:02;9.30;99.90
21895;DHT22;11112;51.270;7.224;2024-03-02T05:28:30;9.30;99.90
21895;DHT22;11112;51.270;7.224;2024-03-02T05:30:58;9.20;99.90
21895;DHT22;11112;51.270;7.224;2024-03-02T05:33:25;9.20;99.90
21895;DHT22;11112;51.270;7.224;2024-03-02T05:35:52;9.20;99.90
21895;DHT22;11112;51.270;7.224;2024-03-02T05:38:19;9.20;99.90
21895;DHT22;11112;51.270;7.224;2024-03-02T05:40:47;9.20;99.90
21895;DHT22;11112;51.270;7.224;2024-03-02T05:43:14;9.20;99.90
21895;DHT22;11112;51.270;7.224;2024-03-02T05:45:41;9.20;99.90
21895;DHT22;11112;51.270;7.224;2024-03-02T05:48:09;9.20;99.90
21895;DHT22;11112;51.270;7.224;2024-03-02T05:50:36;9.10;99.90
21895;DHT22;11112;51.270;7.224;2024-03-02T05:53:04;9.00;99.90
21895;DHT22;11112;51.270;7.224;2024-03-02T05:55:31;9.00;99.90
21895;DHT22;11112;51.270;7.224;2024-03-02T05:57:58;9.00;99.90
21895;DHT22;11112;51.270;7.224;2024-03-02T06:00:41;8.90;99.90
21895;DHT22;11112;51.270;7.224;2024-03-02T06:03:10;8.90;99.90
21895;DHT22;11112;51.270;7.224;2024-03-02T06:05:37;8.90;99.90
21895;DHT22;11112;51.270;7.224;2024-03-02T06:08:04;8.80;99.90
21895;DHT22;11112;51.270;7.224;2024-03-02T06:10:31;8.90;99.90
21895;DHT22;11112;51.270;7.224;2024-03-02T06:12:58;8.90;99.90
21895;DHT22;11112;51.270;7.224;2024-03-02T06:15:25;8.90;99.90
21895;DHT22;11112;51.270;7.224;2024-03-02T06:17:52;8.90;99.90
21895;DHT22;11112;51.270;7.224;2024-03-02T06:20:21;8.90;99.90
21895;DHT22;11112;51.270;7.224;2024-03-02T06:22:48;8.90;99.90
21895;DHT22;11112;51.270;7.224;2024-03-02T06:25:15;8.90;99.90
21895;DHT22;11112;51.270;7.224;2024-03-02T06:27:42;8.80;99.90
21895;DHT22;11112;51.270;7.224;2024-03-02T06:30:10;8.80;99.90
21895;DHT22;11112;51.270;7.224;2024-03-02T06:32:38;8.80;99.90
21895;DHT22;11112;51.270;7.224;2024-03-02T06:35:05;8.80;99.90
21895;DHT22;11112;51.270;7.224;2024-03-02T06:37:37;8.80;99.90
21895;DHT22;11112;51.270;7.224;2024-03-02T06:40:06;8.80;99.90
21895;DHT22;11112;51.270;7.224;2024-03-02T06:42:34;8.80;99.90
21895;DHT22;11112;51.270;7.224;2024-03-02T06:45:01;8.80;99.90
21895;DHT22;11112;51.270;7.224;2024-03-02T06:47:29;8.80;99.90
21895;DHT22;11112;51.270;7.224;2024-03-02T06:49:56;8.80;99.90
21895;DHT22;11112;51.270;7.224;2024-03-02T06:52:24;8.70;99.90
21895;DHT22;11112;51.270;7.224;2024-03-02T06:54:52;8.70;99.90
21895;DHT22;11112;51.270;7.224;2024-03-02T06:57:19;8.70;99.90
21895;DHT22;11112;51.270;7.224;2024-03-02T06:59:46;8.70;99.90
21895;DHT22;11112;51.270;7.224;2024-03-02T07:02:15;8.70;99.90
21895;DHT22;11112;51.270;7.224;2024-03-02T07:04:42;8.70;99.90
21895;DHT22;11112;51.270;7.224;2024-03-02T07:07:10;8.70;99.90
21895;DHT22;11112;51.270;7.224;2024-03-02T07:09:38;8.70;99.90
21895;DHT22;11112;51.270;7.224;2024-03-02T07:12:07;8.70;99.90
21895;DHT22;11112;51.270;7.224;2024-03-02T07:14:34;8.70;99.90
21895;DHT22;11112;51.270;7.224;2024-03-02T07:17:19;8.70;99.90
21895;DHT22;11112;51.270;7.224;2024-03-02T07:19:46;8.70;99.90
21895;DHT22;11112;51.270;7.224;2024-03-02T07:22:13;8.80;99.90
21895;DHT22;11112;51.270;7.224;2024-03-02T07:24:40;8.80;99.90
21895;DHT22;11112;51.270;7.224;2024-03-02T07:27:11;8.80;99.90
21895;DHT22;11112;51.270;7.224;2024-03-02T07:29:39;8.90;99.90
21895;DHT22;11112;51.270;7.224;2024-03-02T07:32:07;8.90;99.90
21895;DHT22;11112;51.270;7.224;2024-03-02T07:34:35;8.90;99.90
21895;DHT22;11112;51.270;7.224;2024-03-02T07:37:03;8.90;99.90
21895;DHT22;11112;51.270;7.224;2024-03-02T07:39:30;8.90;99.90
21895;DHT22;11112;51.270;7.224;2024-03-02T07:41:57;9.00;99.90
21895;DHT22;11112;51.270;7.224;2024-03-02T07:44:26;9.00;99.90
21895;DHT22;11112;51.270;7.224;2024-03-02T07:46:53;9.00;99.90
21895;DHT22;11112;51.270;7.224;2024-03-02T07:49:21;9.00;99.90
21895;DHT22;11112;51.270;7.224;2024-03-02T07:51:48;9.00;99.90
21895;DHT22;11112;51.270;7.224;2024-03-02T07:54:15;9.00;99.90
21895;DHT22;11112;51.270;7.224;2024-03-02T07:56:42;9.00;99.90
21895;DHT22;11112;51.270;7.224;2024-03-02T07:59:10;9.00;99.90
21895;DHT22;11112;51.270;7.224;2024-03-02T08:01:38;9.10;99.90
21895;DHT22;11112;51.270;7.224;2024-03-02T08:04:05;9.10;99.90
21895;DHT22;11112;51.270;7.224;2024-03-02T08:06:33;9.10;99.90
21895;DHT22;11112;51.270;7.224;2024-03-02T08:09:01;9.10;99.90
21895;DHT22;11112;51.270;7.224;2024-03-02T08:11:30;9.10;99.90
21895;DHT22;11112;51.270;7.224;2024-03-02T08:13:57;9.10;99.90
21895;DHT22;11112;51.270;7.224;2024-03-02T08:16:24;9.10;99.90
21895;DHT22;11112;51.270;7.224;2024-03-02T08:18:53;9.20;99.90
21895;DHT22;11112;51.270;7.224;2024-03-02T08:21:23;9.10;99.90
21895;DHT22;11112;51.270;7.224;2024-03-02T08:23:50;9.20;99.90
21895;DHT22;11112;51.270;7.224;2024-03-02T08:26:18;9.30;99.90
21895;DHT22;11112;51.270;7.224;2024-03-02T08:28:45;9.30;99.90
21895;DHT22;11112;51.270;7.224;2024-03-02T08:31:12;9.30;99.90
21895;DHT22;11112;51.270;7.224;2024-03-02T08:33:39;9.30;99.90
21895;DHT22;11112;51.270;7.224;2024-03-02T08:36:08;9.30;99.90
21895;DHT22;11112;51.270;7.224;2024-03-02T08:38:36;9.30;99.90
21895;DHT22;11112;51.270;7.224;2024-03-02T08:41:04;9.40;99.90
21895;DHT22;11112;51.270;7.224;2024-03-02T08:43:31;9.40;99.90
21895;DHT22;11112;51.270;7.224;2024-03-02T08:45:58;9.40;99.90
21895;DHT22;11112;51.270;7.224;2024-03-02T08:48:26;9.40;99.90
21895;DHT22;11112;51.270;7.224;2024-03-02T08:50:53;9.40;99.90
21895;DHT22;11112;51.270;7.224;2024-03-02T08:53:22;9.50;99.90
21895;DHT22;11112;51.270;7.224;2024-03-02T08:55:49;9.50;99.90
21895;DHT22;11112;51.270;7.224;2024-03-02T08:58:16;9.50;99.90
21895;DHT22;11112;51.270;7.224;2024-03-02T09:00:43;9.60;99.90
21895;DHT22;11112;51.270;7.224;2024-03-02T09:03:10;9.60;99.90
21895;DHT22;11112;51.270;7.224;2024-03-02T09:05:37;9.70;99.90
21895;DHT22;11112;51.270;7.224;2024-03-02T09:08:05;9.80;99.90
21895;DHT22;11112;51.270;7.224;2024-03-02T09:10:34;9.80;99.90
21895;DHT22;11112;51.270;7.224;2024-03-02T09:13:01;9.80;99.90
21895;DHT22;11112;51.270;7.224;2024-03-02T09:15:28;9.90;99.90
21895;DHT22;11112;51.270;7.224;2024-03-02T09:17:55;9.90;99.90
21895;DHT22;11112;51.270;7.224;2024-03-02T09:20:23;10.00;99.90
21895;DHT22;11112;51.270;7.224;2024-03-02T09:22:50;10.10;99.90
21895;DHT22;11112;51.270;7.224;2024-03-02T09:25:16;10.10;99.90
21895;DHT22;11112;51.270;7.224;2024-03-02T09:27:45;10.10;99.90
21895;DHT22;11112;51.270;7.224;2024-03-02T09:30:13;10.20;99.90
21895;DHT22;11112;51.270;7.224;2024-03-02T09:32:40;10.20;99.90
21895;DHT22;11112;51.270;7.224;2024-03-02T09:35:08;10.20;99.90
21895;DHT22;11112;51.270;7.224;2024-03-02T09:37:35;10.30;99.90
21895;DHT22;11112;51.270;7.224;2024-03-02T09:40:03;10.30;99.90
21895;DHT22;11112;51.270;7.224;2024-03-02T09:42:32;10.30;99.90
21895;DHT22;11112;51.270;7.224;2024-03-02T09:45:00;10.40;99.90
21895;DHT22;11112;51.270;7.224;2024-03-02T09:47:28;10.40;99.90
21895;DHT22;11112;51.270;7.224;2024-03-02T09:49:55;10.50;99.90
21895;DHT22;11112;51.270;7.224;2024-03-02T09:52:22;10.50;99.90
21895;DHT22;11112;51.270;7.224;2024-03-02T09:54:49;10.50;99.90
21895;DHT22;11112;51.270;7.224;2024-03-02T09:57:17;10.60;99.90
21895;DHT22;11112;51.270;7.224;2024-03-02T09:59:44;10.60;99.90
21895;DHT22;11112;51.270;7.224;2024-03-02T10:02:12;10.60;99.90
21895;DHT22;11112;51.270;7.224;2024-03-02T10:04:39;10.70;99.90
21895;DHT22;11112;51.270;7.224;2024-03-02T10:07:11;10.70;99.90
21895;DHT22;11112;51.270;7.224;2024-03-02T10:09:43;10.70;99.90
21895;DHT22;11112;51.270;7.224;2024-03-02T10:12:12;10.70;99.90
21895;DHT22;11112;51.270;7.224;2024-03-02T10:14:42;10.70;99.90
21895;DHT22;11112;51.270;7.224;2024-03-02T10:17:10;10.70;99.90
21895;DHT22;11112;51.270;7.224;2024-03-02T10:19:39;10.70;99.90
21895;DHT22;11112;51.270;7.224;2024-03-02T10:22:07;10.70;99.90
21895;DHT22;11112;51.270;7.224;2024-03-02T10:24:37;10.70;99.90
21895;DHT22;11112;51.270;7.224;2024-03-02T10:27:08;10.80;99.90
21895;DHT22;11112;51.270;7.224;2024-03-02T10:29:37;10.80;99.90
21895;DHT22;11112;51.270;7.224;2024-03-02T10:32:07;10.80;99.90
21895;DHT22;11112;51.270;7.224;2024-03-02T10:34:36;10.80;99.90
21895;DHT22;11112;51.270;7.224;2024-03-02T10:37:05;10.80;99.90
21895;DHT22;11112;51.270;7.224;2024-03-02T10:39:34;10.80;99.90
21895;DHT22;11112;51.270;7.224;2024-03-02T10:42:03;10.80;99.90
21895;DHT22;11112;51.270;7.224;2024-03-02T10:44:32;10.90;99.90
21895;DHT22;11112;51.270;7.224;2024-03-02T10:47:01;10.90;99.90
21895;DHT22;11112;51.270;7.224;2024-03-02T10:49:29;10.90;99.90
21895;DHT22;11112;51.270;7.224;2024-03-02T10:51:57;10.90;99.90
21895;DHT22;11112;51.270;7.224;2024-03-02T10:54:27;10.90;99.90
21895;DHT22;11112;51.270;7.224;2024-03-02T10:56:58;11.00;99.90
21895;DHT22;11112;51.270;7.224;2024-03-02T10:59:28;10.90;99.90
21895;DHT22;11112;51.270;7.224;2024-03-02T11:02:01;10.90;99.90
21895;DHT22;11112;51.270;7.224;2024-03-02T11:04:30;11.00;99.90
21895;DHT22;11112;51.270;7.224;2024-03-02T11:07:00;11.00;99.90
21895;DHT22;11112;51.270;7.224;2024-03-02T11:09:34;11.00;99.90
21895;DHT22;11112;51.270;7.224;2024-03-02T11:12:09;11.00;99.90
21895;DHT22;11112;51.270;7.224;2024-03-02T11:14:41;11.00;99.90
21895;DHT22;11112;51.270;7.224;2024-03-02T11:17:10;11.10;99.90
21895;DHT22;11112;51.270;7.224;2024-03-02T11:19:39;11.10;99.90
21895;DHT22;11112;51.270;7.224;2024-03-02T11:22:08;11.10;99.90
21895;DHT22;11112;51.270;7.224;2024-03-02T11:24:37;11.20;99.90
21895;DHT22;11112;51.270;7.224;2024-03-02T11:27:05;11.20;99.90
21895;DHT22;11112;51.270;7.224;2024-03-02T11:29:46;11.20;99.90
21895;DHT22;11112;51.270;7.224;2024-03-02T11:32:19;11.20;99.90
21895;DHT22;11112;51.270;7.224;2024-03-02T11:34:49;11.20;99.90
21895;DHT22;11112;51.270;7.224;2024-03-02T11:37:17;11.30;99.90
21895;DHT22;11112;51.270;7.224;2024-03-02T11:39:49;11.30;99.90
21895;DHT22;11112;51.270;7.224;2024-03-02T11:42:17;11.40;99.90
21895;DHT22;11112;51.270;7.224;2024-03-02T11:44:46;11.40;99.90
21895;DHT22;11112;51.270;7.224;2024-03-02T11:47:15;11.40;99.90
21895;DHT22;11112;51.270;7.224;2024-03-02T11:49:44;11.50;99.90
21895;DHT22;11112;51.270;7.224;2024-03-02T11:52:13;11.40;99.90
21895;DHT22;11112;51.270;7.224;2024-03-02T11:54:43;11.40;99.90
21895;DHT22;11112;51.270;7.224;2024-03-02T11:57:16;11.40;99.90
21895;DHT22;11112;51.270;7.224;2024-03-02T11:59:45;11.40;99.90
21895;DHT22;11112;51.270;7.224;2024-03-02T12:02:16;11.40;99.90
21895;DHT22;11112;51.270;7.224;2024-03-02T12:04:44;11.40;99.90
21895;DHT22;11112;51.270;7.224;2024-03-02T12:07:12;11.50;99.90
21895;DHT22;11112;51.270;7.224;2024-03-02T12:09:39;11.50;99.90
21895;DHT22;11112;51.270;7.224;2024-03-02T12:12:08;11.50;99.90
21895;DHT22;11112;51.270;7.224;2024-03-02T12:14:38;11.50;99.90
21895;DHT22;11112;51.270;7.224;2024-03-02T12:17:06;11.50;99.90
21895;DHT22;11112;51.270;7.224;2024-03-02T12:19:33;11.50;99.90
21895;DHT22;11112;51.270;7.224;2024-03-02T12:22:00;11.50;99.90
21895;DHT22;11112;51.270;7.224;2024-03-02T12:24:29;11.60;99.90
21895;DHT22;11112;51.270;7.224;2024-03-02T12:26:57;11.50;99.90
21895;DHT22;11112;51.270;7.224;2024-03-02T12:29:24;11.60;99.90
21895;DHT22;11112;51.270;7.224;2024-03-02T12:31:52;11.50;99.90
21895;DHT22;11112;51.270;7.224;2024-03-02T12:34:21;11.60;99.90
21895;DHT22;11112;51.270;7.224;2024-03-02T12:36:49;11.60;99.90
21895;DHT22;11112;51.270;7.224;2024-03-02T12:39:19;11.60;99.90
21895;DHT22;11112;51.270;7.224;2024-03-02T12:41:49;11.60;99.90
21895;DHT22;11112;51.270;7.224;2024-03-02T12:44:17;11.60;99.90
21895;DHT22;11112;51.270;7.224;2024-03-02T12:46:44;11.50;99.90
21895;DHT22;11112;51.270;7.224;2024-03-02T12:49:14;11.50;99.90
21895;DHT22;11112;51.270;7.224;2024-03-02T12:51:42;11.60;99.90
21895;DHT22;11112;51.270;7.224;2024-03-02T12:54:12;11.60;99.90
21895;DHT22;11112;51.270;7.224;2024-03-02T12:56:41;11.60;99.90
21895;DHT22;11112;51.270;7.224;2024-03-02T12:59:18;11.60;99.90
21895;DHT22;11112;51.270;7.224;2024-03-02T13:01:50;11.60;99.90
21895;DHT22;11112;51.270;7.224;2024-03-02T13:04:23;11.60;99.90
21895;DHT22;11112;51.270;7.224;2024-03-02T13:06:51;11.60;99.90
21895;DHT22;11112;51.270;7.224;2024-03-02T13:09:19;11.60;99.90
21895;DHT22;11112;51.270;7.224;2024-03-02T13:11:46;11.50;99.90
21895;DHT22;11112;51.270;7.224;2024-03-02T13:14:13;11.60;99.90
21895;DHT22;11112;51.270;7.224;2024-03-02T13:16:40;11.50;99.90
21895;DHT22;11112;51.270;7.224;2024-03-02T13:19:08;11.50;99.90
21895;DHT22;11112;51.270;7.224;2024-03-02T13:21:36;11.50;99.90
21895;DHT22;11112;51.270;7.224;2024-03-02T13:24:04;11.50;99.90
21895;DHT22;11112;51.270;7.224;2024-03-02T13:26:32;11.60;99.90
21895;DHT22;11112;51.270;7.224;2024-03-02T13:28:59;11.50;99.90
21895;DHT22;11112;51.270;7.224;2024-03-02T13:31:26;11.50;99.90
21895;DHT22;11112;51.270;7.224;2024-03-02T13:33:53;11.60;99.90
21895;DHT22;11112;51.270;7.224;2024-03-02T13:36:20;11.60;99.90
21895;DHT22;11112;51.270;7.224;2024-03-02T13:38:49;11.60;99.90
21895;DHT22;11112;51.270;7.224;2024-03-02T13:41:16;11.60;99.90
21895;DHT22;11112;51.270;7.224;2024-03-02T13:43:43;11.60;99.90
21895;DHT22;11112;51.270;7.224;2024-03-02T13:46:11;11.60;99.90
21895;DHT22;11112;51.270;7.224;2024-03-02T13:48:38;11.60;99.90
21895;DHT22;11112;51.270;7.224;2024-03-02T13:51:05;11.60;99.90
21895;DHT22;11112;51.270;7.224;2024-03-02T13:53:32;11.70;99.90
21895;DHT22;11112;51.270;7.224;2024-03-02T13:56:00;11.60;99.90
21895;DHT22;11112;51.270;7.224;2024-03-02T13:58:27;11.60;99.90
21895;DHT22;11112;51.270;7.224;2024-03-02T14:00:54;11.60;99.90
21895;DHT22;11112;51.270;7.224;2024-03-02T14:03:22;11.70;99.90
21895;DHT22;11112;51.270;7.224;2024-03-02T14:05:49;11.70;99.90
21895;DHT22;11112;51.270;7.224;2024-03-02T14:08:18;11.70;99.90
21895;DHT22;11112;51.270;7.224;2024-03-02T14:10:45;11.70;99.90
21895;DHT22;11112;51.270;7.224;2024-03-02T14:13:13;11.70;99.90
21895;DHT22;11112;51.270;7.224;2024-03-02T14:15:41;11.80;99.90
21895;DHT22;11112;51.270;7.224;2024-03-02T14:18:08;11.80;99.90
21895;DHT22;11112;51.270;7.224;2024-03-02T14:20:36;11.80;99.90
21895;DHT22;11112;51.270;7.224;2024-03-02T14:23:03;11.80;99.90
21895;DHT22;11112;51.270;7.224;2024-03-02T14:25:30;11.80;99.90
21895;DHT22;11112;51.270;7.224;2024-03-02T14:27:59;11.80;99.90
21895;DHT22;11112;51.270;7.224;2024-03-02T14:30:28;11.80;99.90
21895;DHT22;11112;51.270;7.224;2024-03-02T14:32:55;11.90;99.90
21895;DHT22;11112;51.270;7.224;2024-03-02T14:35:22;11.80;99.90
21895;DHT22;11112;51.270;7.224;2024-03-02T14:37:49;11.80;99.90
21895;DHT22;11112;51.270;7.224;2024-03-02T14:40:16;11.80;99.90
21895;DHT22;11112;51.270;7.224;2024-03-02T14:42:43;11.90;99.90
21895;DHT22;11112;51.270;7.224;2024-03-02T14:45:13;11.80;99.90
21895;DHT22;11112;51.270;7.224;2024-03-02T14:47:42;11.80;99.90
21895;DHT22;11112;51.270;7.224;2024-03-02T14:50:09;11.80;99.90
21895;DHT22;11112;51.270;7.224;2024-03-02T14:52:36;11.80;99.90
21895;DHT22;11112;51.270;7.224;2024-03-02T14:55:04;11.80;99.90
21895;DHT22;11112;51.270;7.224;2024-03-02T14:57:33;11.80;99.90
21895;DHT22;11112;51.270;7.224;2024-03-02T15:00:00;11.80;99.90
21895;DHT22;11112;51.270;7.224;2024-03-02T15:02:28;11.80;99.90
21895;DHT22;11112;51.270;7.224;2024-03-02T15:04:56;11.80;99.90
21895;DHT22;11112;51.270;7.224;2024-03-02T15:07:24;11.80;99.90
21895;DHT22;11112;51.270;7.224;2024-03-02T15:09:51;11.80;99.90
21895;DHT22;11112;51.270;7.224;2024-03-02T15:12:18;11.80;99.90
21895;DHT22;11112;51.270;7.224;2024-03-02T15:14:45;11.80;99.90
21895;DHT22;11112;51.270;7.224;2024-03-02T15:17:13;11.80;99.90
21895;DHT22;11112;51.270;7.224;2024-03-02T15:19:42;11.80;99.90
21895;DHT22;11112;51.270;7.224;2024-03-02T15:22:11;11.80;99.90
21895;DHT22;11112;51.270;7.224;2024-03-02T15:24:38;11.80;99.90
21895;DHT22;11112;51.270;7.224;2024-03-02T15:27:06;11.80;99.90
21895;DHT22;11112;51.270;7.224;2024-03-02T15:29:34;11.80;99.90
21895;DHT22;11112;51.270;7.224;2024-03-02T15:32:01;11.80;99.90
21895;DHT22;11112;51.270;7.224;2024-03-02T15:34:31;11.80;99.90
21895;DHT22;11112;51.270;7.224;2024-03-02T15:36:58;11.80;99.90
21895;DHT22;11112;51.270;7.224;2024-03-02T15:39:27;11.80;99.90
21895;DHT22;11112;51.270;7.224;2024-03-02T15:41:54;11.80;99.90
21895;DHT22;11112;51.270;7.224;2024-03-02T15:44:21;11.80;99.90
21895;DHT22;11112;51.270;7.224;2024-03-02T15:46:48;11.80;99.90